Time;durP1;ratioP1;P1;durP2;ratioP2;P2;SDS_P1;SDS_P2;PMS_P1;PMS_P2;Temp;Humidity;BMP_temperature;BMP_pressure;BME280_temperature;BME280_humidity;BME280_pressure;Samples;Min_cycle;Max_cycle;Signal;HPM_P1;HPM_P2
2023/05/27 00:01:32;;;;;;;;;11.00;8.75;;;;;18.75;44.17;101634.41;5075910;28;45603;-79
2023/05/27 00:03:58;;;;;;;;;8.00;8.00;;;;;18.73;43.81;101639.03;5074583;28;48633;-81
2023/05/27 00:06:23;;;;;;;;;8.00;7.50;;;;;18.68;43.86;101636.75;5075563;28;45914;-79
2023/05/27 00:08:48;;;;;;;;;9.00;7.00;;;;;18.64;43.78;101632.72;5076004;28;45794;-77
2023/05/27 00:11:14;;;;;;;;;8.25;6.50;;;;;18.58;44.08;101630.59;5076491;28;45631;-79
2023/05/27 00:17:03;;;;;;;;;9.50;7.00;;;;;18.52;44.29;101630.25;5076403;28;45862;-83
2023/05/27 00:19:30;;;;;;;;;9.75;8.00;;;;;18.49;44.08;101630.53;5077385;27;45713;-80
2023/05/27 00:21:56;;;;;;;;;8.75;7.00;;;;;18.45;44.28;101632.63;5077164;27;46402;-82
2023/05/27 00:24:22;;;;;;;;;10.00;8.25;;;;;18.44;44.44;101636.25;5076777;27;46328;-78
2023/05/27 00:26:47;;;;;;;;;6.00;5.75;;;;;18.41;43.91;101634.69;5077006;28;45509;-83
2023/05/27 00:32:35;;;;;;;;;9.50;6.50;;;;;18.36;44.11;101628.13;5076261;28;46007;-80
2023/05/27 00:35:01;;;;;;;;;8.25;7.25;;;;;18.32;44.25;101630.19;5077242;27;45906;-77
2023/05/27 00:37:26;;;;;;;;;9.00;8.00;;;;;18.28;44.50;101615.53;5093170;27;45683;-79
2023/05/27 00:39:51;;;;;;;;;10.00;8.25;;;;;18.26;44.05;101616.63;5076563;27;45725;-76
2023/05/27 00:42:17;;;;;;;;;10.25;8.00;;;;;18.25;44.18;101614.94;5075797;28;45591;-77
2023/05/27 00:44:42;;;;;;;;;7.00;7.00;;;;;18.22;44.25;101612.56;5075543;27;46065;-77
2023/05/27 00:47:08;;;;;;;;;7.75;6.75;;;;;18.21;44.30;101606.41;5075449;27;45696;-77
2023/05/27 00:49:33;;;;;;;;;8.25;6.50;;;;;18.23;44.25;101614.25;5075839;28;45947;-76
2023/05/27 00:52:00;;;;;;;;;8.50;7.50;;;;;18.21;44.57;101618.84;5075639;27;46877;-80
2023/05/27 00:54:25;;;;;;;;;8.75;8.00;;;;;18.17;44.21;101612.97;5076479;28;45549;-76
2023/05/27 00:56:51;;;;;;;;;8.00;7.00;;;;;18.18;44.08;101606.69;5075744;27;45661;-76
2023/05/27 01:02:42;;;;;;;;;11.00;10.25;;;;;18.16;44.46;101610.44;5074904;28;46322;-77
2023/05/27 01:05:12;;;;;;;;;8.75;8.00;;;;;18.09;44.63;101602.16;5075244;27;46351;-78
2023/05/27 01:07:49;;;;;;;;;11.50;8.25;;;;;18.09;44.26;101607.47;5075154;27;45797;-77
2023/05/27 01:10:17;;;;;;;;;8.25;7.25;;;;;18.07;44.44;101604.13;5075937;27;45549;-80
2023/05/27 01:12:59;;;;;;;;;8.00;7.00;;;;;18.08;44.35;101604.97;5074307;28;46503;-81
2023/05/27 01:15:26;;;;;;;;;7.75;4.75;;;;;18.06;44.78;101605.09;5075910;27;45874;-77
2023/05/27 01:17:55;;;;;;;;;14.25;9.00;;;;;18.00;44.35;101598.53;5074595;27;45841;-78
2023/05/27 01:20:20;;;;;;;;;8.75;7.75;;;;;17.98;44.10;101596.97;5075319;27;45686;-81
2023/05/27 01:22:47;;;;;;;;;10.00;8.00;;;;;17.94;44.60;101596.38;5074873;28;46365;-79
2023/05/27 01:25:13;;;;;;;;;9.00;8.00;;;;;17.89;44.58;101592.47;5075191;27;45957;-77
2023/05/27 01:27:40;;;;;;;;;10.75;8.50;;;;;17.89;44.54;101597.75;5074702;27;45588;-80
2023/05/27 01:30:06;;;;;;;;;6.25;5.00;;;;;17.83;44.46;101601.78;5074931;28;45855;-77
2023/05/27 01:32:45;;;;;;;;;7.00;6.00;;;;;17.80;44.34;101607.34;5074778;27;45631;-80
2023/05/27 01:35:23;;;;;;;;;8.25;7.00;;;;;17.77;44.56;101612.06;5074399;28;47307;-83
2023/05/27 01:37:52;;;;;;;;;9.75;7.00;;;;;17.71;44.56;101608.13;5074584;27;45579;-79
2023/05/27 01:40:18;;;;;;;;;9.50;6.00;;;;;17.66;44.41;101605.03;5074755;27;45869;-79
2023/05/27 01:42:44;;;;;;;;;6.50;4.75;;;;;17.63;44.34;101612.41;5074640;27;46556;-80
2023/05/27 01:45:11;;;;;;;;;5.00;5.00;;;;;17.59;44.66;101602.06;5074216;27;46101;-78
2023/05/27 01:47:37;;;;;;;;;8.50;8.00;;;;;17.54;44.60;101590.16;5074097;27;45591;-78
2023/05/27 01:50:03;;;;;;;;;8.25;6.50;;;;;17.51;44.64;101593.03;5074639;28;45774;-81
2023/05/27 01:52:28;;;;;;;;;6.00;5.00;;;;;17.48;44.55;101586.22;5074362;27;45632;-76
2023/05/27 01:54:54;;;;;;;;;6.00;5.50;;;;;17.47;44.74;101591.63;5074663;28;45731;-79
2023/05/27 01:57:21;;;;;;;;;5.25;5.00;;;;;17.42;44.32;101586.72;5073850;27;45765;-77
2023/05/27 02:03:08;;;;;;;;;7.75;6.50;;;;;17.37;44.38;101586.28;5073988;28;46079;-79
2023/05/27 02:05:35;;;;;;;;;6.00;5.00;;;;;17.34;44.63;101581.22;5074782;27;46028;-78
2023/05/27 02:08:02;;;;;;;;;8.25;7.00;;;;;17.33;44.80;101592.75;5089545;27;46009;-80
2023/05/27 02:10:28;;;;;;;;;6.25;6.00;;;;;17.31;44.34;101589.44;5074879;27;45766;-81
2023/05/27 02:12:53;;;;;;;;;8.00;6.50;;;;;17.31;44.52;101591.22;5074593;27;46269;-80
2023/05/27 02:15:19;;;;;;;;;8.50;5.25;;;;;17.28;44.69;101587.03;5074963;28;45754;-75
2023/05/27 02:17:46;;;;;;;;;6.50;6.00;;;;;17.26;44.59;101586.31;5074100;27;45694;-81
2023/05/27 02:20:11;;;;;;;;;7.00;6.00;;;;;17.25;44.43;101583.78;5073830;28;45683;-81
2023/05/27 02:22:37;;;;;;;;;6.00;6.00;;;;;17.21;44.82;101585.88;5074583;28;45466;-81
2023/05/27 02:25:03;;;;;;;;;5.75;5.75;;;;;17.14;45.03;101587.34;5072579;28;48092;-81
2023/05/27 02:27:28;;;;;;;;;8.75;6.75;;;;;17.06;44.56;101590.59;5073779;27;45718;-78
2023/05/27 02:33:15;;;;;;;;;7.00;6.75;;;;;16.98;44.80;101584.28;5074049;28;45643;-79
2023/05/27 02:35:41;;;;;;;;;6.50;5.75;;;;;16.93;44.85;101584.66;5074689;28;45669;-78
2023/05/27 02:38:06;;;;;;;;;7.75;7.00;;;;;16.89;44.71;101579.75;5073794;28;45722;-82
2023/05/27 02:40:32;;;;;;;;;7.50;6.25;;;;;16.83;44.73;101585.53;5074471;27;45762;-76
2023/05/27 02:42:57;;;;;;;;;6.75;5.75;;;;;16.84;44.89;101585.41;5073862;28;45662;-82
2023/05/27 02:45:23;;;;;;;;;5.75;5.00;;;;;16.83;45.09;101582.88;5073722;27;45631;-80
2023/05/27 02:47:49;;;;;;;;;8.25;6.25;;;;;16.79;44.61;101567.25;5073841;27;45573;-77
2023/05/27 02:50:15;;;;;;;;;6.25;6.00;;;;;16.75;44.81;101567.63;5074283;27;45758;-78
2023/05/27 02:52:41;;;;;;;;;8.00;6.00;;;;;16.75;44.79;101579.06;5072590;27;46377;-80
2023/05/27 02:55:07;;;;;;;;;6.50;4.75;;;;;16.72;44.91;101567.88;5073778;28;45740;-80
2023/05/27 02:57:32;;;;;;;;;6.00;5.00;;;;;16.67;44.70;101568.28;5071460;28;45941;-78
2023/05/27 03:03:20;;;;;;;;;8.75;6.75;;;;;16.59;45.00;101569.84;5073542;28;46052;-78
2023/05/27 03:05:47;;;;;;;;;6.75;5.00;;;;;16.57;44.72;101572.56;5073656;28;46041;-82
2023/05/27 03:08:12;;;;;;;;;6.25;6.00;;;;;16.52;44.88;101566.81;5072388;28;45778;-82
2023/05/27 03:10:38;;;;;;;;;10.50;6.25;;;;;16.50;44.97;101566.09;5073998;27;45620;-80
2023/05/27 03:13:03;;;;;;;;;7.25;5.50;;;;;16.45;44.44;101564.78;5073575;27;46366;-83
2023/05/27 03:15:29;;;;;;;;;7.50;6.50;;;;;16.45;44.56;101564.78;5073038;28;46002;-78
2023/05/27 03:17:55;;;;;;;;;7.00;5.50;;;;;16.44;44.76;101568.41;5072521;27;45808;-83
2023/05/27 03:20:21;;;;;;;;;5.50;5.50;;;;;16.40;44.99;101565.16;5077916;27;45783;-79
2023/05/27 03:22:47;;;;;;;;;8.00;7.00;;;;;16.34;44.95;101565.66;5085727;27;45691;-81
2023/05/27 03:25:12;;;;;;;;;8.00;5.50;;;;;16.33;45.12;101569.25;5085650;28;45627;-79
2023/05/27 03:27:38;;;;;;;;;6.00;5.75;;;;;16.33;44.87;101569.25;5094123;27;45465;-84
2023/05/27 03:33:25;;;;;;;;;6.50;5.75;;;;;16.25;45.14;101571.66;5074781;28;45693;-81
2023/05/27 03:35:51;;;;;;;;;6.25;5.75;;;;;16.20;44.93;101557.97;5073976;27;45915;-80
2023/05/27 03:38:16;;;;;;;;;6.00;5.00;;;;;16.15;44.93;101560.13;5074366;28;45607;-81
2023/05/27 03:40:42;;;;;;;;;7.50;6.00;;;;;16.08;44.97;101562.44;5074553;28;45485;-79
2023/05/27 03:43:07;;;;;;;;;6.00;5.25;;;;;16.06;45.20;101560.88;5075483;27;45509;-77
2023/05/27 03:48:55;;;;;;;;;4.75;4.25;;;;;15.96;45.06;101560.75;5074486;28;45793;-82
2023/05/27 03:51:21;;;;;;;;;4.00;3.00;;;;;15.91;45.09;101553.19;5074812;28;45735;-79
2023/05/27 03:53:47;;;;;;;;;6.75;5.25;;;;;15.89;45.31;101559.53;5073891;27;46904;-82
2023/05/27 03:56:12;;;;;;;;;7.00;7.00;;;;;15.87;45.10;101561.47;5073077;27;46053;-79
2023/05/27 03:58:38;;;;;;;;;7.75;5.25;;;;;15.84;45.20;101573.13;5088829;27;45759;-82
2023/05/27 04:01:03;;;;;;;;;7.00;6.25;;;;;15.83;45.40;101565.31;5073317;27;45446;-76
2023/05/27 04:03:28;;;;;;;;;7.00;6.25;;;;;15.80;45.54;101563.75;5072361;28;47098;-77
2023/05/27 04:05:56;;;;;;;;;9.00;5.25;;;;;15.77;45.44;101561.34;5075690;27;46037;-80
2023/05/27 04:08:22;;;;;;;;;5.50;5.00;;;;;15.76;45.37;101562.28;5076248;27;45773;-81
2023/05/27 04:10:48;;;;;;;;;8.25;6.00;;;;;15.71;45.70;101563.63;5076374;27;45565;-81
2023/05/27 04:13:13;;;;;;;;;6.50;5.00;;;;;15.70;45.68;101572.50;5076300;27;45687;-82
2023/05/27 04:19:01;;;;;;;;;11.25;6.25;;;;;15.65;45.50;101567.59;5064491;28;46446;-82
2023/05/27 04:21:26;;;;;;;;;5.75;5.00;;;;;15.68;45.56;101577.91;5075983;27;45722;-82
2023/05/27 04:23:52;;;;;;;;;5.50;4.50;;;;;15.66;45.59;101573.69;5073993;28;47417;-81
2023/05/27 04:26:18;;;;;;;;;7.00;5.00;;;;;15.62;45.73;101559.88;5075700;27;45681;-79
2023/05/27 04:28:45;;;;;;;;;6.25;5.00;;;;;15.61;45.76;101570.56;5075971;28;45623;-78
2023/05/27 04:31:12;;;;;;;;;6.50;5.50;;;;;15.58;45.87;101576.94;5076061;27;46010;-83
2023/05/27 04:33:39;;;;;;;;;4.50;4.00;;;;;15.55;45.94;101571.88;5075996;27;46466;-80
2023/05/27 04:36:06;;;;;;;;;6.25;5.00;;;;;15.57;46.14;101569.97;5075064;28;46153;-79
2023/05/27 04:38:31;;;;;;;;;7.75;6.00;;;;;15.55;45.97;101568.41;5075857;27;45812;-78
2023/05/27 04:40:57;;;;;;;;;6.75;5.50;;;;;15.51;46.32;101560.69;5076105;27;45835;-79
2023/05/27 04:43:23;;;;;;;;;6.00;5.75;;;;;15.52;45.94;101567.69;5076108;27;46362;-78
2023/05/27 04:49:10;;;;;;;;;8.50;5.50;;;;;15.50;46.54;101564.28;5076891;28;45790;-76
2023/05/27 04:51:36;;;;;;;;;7.00;6.00;;;;;15.48;46.22;101557.44;5074655;27;45580;-77
2023/05/27 04:54:02;;;;;;;;;4.50;4.50;;;;;15.46;46.20;101557.53;5075743;27;46437;-80
2023/05/27 04:56:27;;;;;;;;;6.00;4.25;;;;;15.47;45.95;101553.94;5075155;27;45619;-79
2023/05/27 04:58:52;;;;;;;;;6.75;5.00;;;;;15.46;46.53;101559.34;5073714;28;45826;-79
2023/05/27 05:01:20;;;;;;;;;6.00;5.00;;;;;15.42;46.39;101553.47;5075715;27;45682;-76
2023/05/27 05:04:02;;;;;;;;;6.25;4.75;;;;;15.44;46.37;101558.59;5075114;27;45755;-75
2023/05/27 05:06:27;;;;;;;;;5.50;5.00;;;;;15.44;46.51;101559.44;5074665;27;46082;-77
2023/05/27 05:08:53;;;;;;;;;5.75;4.50;;;;;15.44;46.19;101555.97;5075229;27;45690;-79
2023/05/27 05:11:18;;;;;;;;;5.75;4.50;;;;;15.44;46.46;101555.97;5075484;27;45685;-77
2023/05/27 05:13:43;;;;;;;;;6.00;6.00;;;;;15.47;46.61;101561.03;5075432;28;45736;-77
2023/05/27 05:19:30;;;;;;;;;9.25;4.00;;;;;15.46;46.44;101572.53;5069144;28;45714;-78
2023/05/27 05:21:56;;;;;;;;;10.00;8.50;;;;;15.46;46.69;101567.25;5075009;28;45787;-76
2023/05/27 05:24:21;;;;;;;;;7.00;6.50;;;;;15.45;46.92;101563.78;5073584;28;48447;-79
2023/05/27 05:26:46;;;;;;;;;8.50;5.75;;;;;15.44;46.59;101564.72;5089683;27;47266;-80
2023/05/27 05:29:12;;;;;;;;;6.25;4.50;;;;;15.43;46.82;101564.88;5074817;28;45628;-81
2023/05/27 05:31:37;;;;;;;;;6.75;5.50;;;;;15.41;46.78;101562.34;5074984;27;45662;-79
2023/05/27 05:34:03;;;;;;;;;6.25;4.00;;;;;15.41;46.45;101572.91;5075887;27;45575;-79
2023/05/27 05:36:28;;;;;;;;;10.25;5.50;;;;;15.36;46.78;101561.84;5079712;28;45677;-80
2023/05/27 05:38:54;;;;;;;;;5.50;5.50;;;;;15.39;46.80;101572.16;5083891;27;45607;-77
2023/05/27 05:41:19;;;;;;;;;5.00;5.00;;;;;15.39;46.83;101563.41;5082682;27;45821;-80
2023/05/27 05:43:45;;;;;;;;;8.00;6.50;;;;;15.37;47.14;101571.47;5077992;28;46308;-80
2023/05/27 05:49:32;;;;;;;;;7.00;4.75;;;;;15.37;47.38;101571.47;5075170;28;45730;-80
2023/05/27 05:51:58;;;;;;;;;5.00;5.00;;;;;15.35;47.34;101570.72;5075154;27;45627;-82
2023/05/27 05:54:23;;;;;;;;;5.75;5.00;;;;;15.32;47.17;101578.88;5074944;27;46193;-78
2023/05/27 05:56:48;;;;;;;;;9.25;5.00;;;;;15.30;47.58;101572.03;5074292;27;46461;-78
2023/05/27 05:59:14;;;;;;;;;5.00;4.75;;;;;15.26;47.69;101566.16;5074885;28;45693;-78
2023/05/27 06:05:01;;;;;;;;;9.75;5.75;;;;;15.28;47.22;101568.66;5074058;28;45602;-78
2023/05/27 06:07:27;;;;;;;;;4.75;4.75;;;;;15.31;47.34;101566.63;5073813;28;45653;-77
2023/05/27 06:09:55;;;;;;;;;7.25;6.00;;;;;15.34;47.61;101560.25;5074400;28;45620;-77
2023/05/27 06:12:21;;;;;;;;;7.50;6.50;;;;;15.37;47.68;101565.34;5074926;27;45702;-78
2023/05/27 06:14:46;;;;;;;;;11.50;5.50;;;;;15.39;47.79;101568.69;5074528;28;46221;-80
2023/05/27 06:17:13;;;;;;;;;9.50;5.50;;;;;15.37;47.46;101566.19;5074168;27;45891;-79
2023/05/27 06:19:38;;;;;;;;;7.25;5.00;;;;;15.35;47.80;101556.66;5073135;28;45808;-80
2023/05/27 06:22:05;;;;;;;;;5.50;5.25;;;;;15.40;47.88;101579.13;5074351;27;45765;-78
2023/05/27 06:24:31;;;;;;;;;7.50;5.00;;;;;15.42;47.78;101568.47;5074332;27;45795;-79
2023/05/27 06:26:56;;;;;;;;;6.00;6.00;;;;;15.41;47.61;101561.50;5074514;28;46313;-79
2023/05/27 06:29:21;;;;;;;;;6.75;6.00;;;;;15.44;47.79;101579.72;5074667;28;45680;-81
2023/05/27 06:35:35;;;;;;;;;9.50;7.25;;;;;15.40;47.91;101568.56;5072997;28;45883;-81
2023/05/27 06:38:01;;;;;;;;;9.50;6.75;;;;;15.40;47.94;101563.28;5073606;27;45798;-83
2023/05/27 06:40:27;;;;;;;;;8.50;7.75;;;;;15.42;48.01;101565.81;5073576;28;45639;-82
2023/05/27 06:42:53;;;;;;;;;11.00;8.00;;;;;15.44;48.25;101564.72;5074533;27;45723;-81
2023/05/27 06:45:19;;;;;;;;;10.00;7.00;;;;;15.46;47.83;101565.47;5073099;27;45712;-82
2023/05/27 06:47:44;;;;;;;;;7.25;6.00;;;;;15.48;47.97;101560.06;5073727;27;45663;-81
2023/05/27 06:50:10;;;;;;;;;8.25;5.75;;;;;15.51;48.10;101552.78;5073581;28;45734;-78
2023/05/27 06:52:35;;;;;;;;;7.25;6.50;;;;;15.53;47.94;101556.16;5073818;27;45906;-80
2023/05/27 06:55:01;;;;;;;;;7.50;6.50;;;;;15.62;47.73;101557.25;5073304;28;46224;-76
2023/05/27 06:57:26;;;;;;;;;11.75;9.75;;;;;15.65;48.05;101545.59;5071188;28;46114;-81
2023/05/27 06:59:52;;;;;;;;;11.00;7.25;;;;;15.69;47.69;101557.63;5073170;28;45722;-80
2023/05/27 07:02:17;;;;;;;;;9.75;6.50;;;;;15.73;47.75;101559.91;5073532;28;45855;-78
2023/05/27 07:04:43;;;;;;;;;6.25;4.00;;;;;15.74;47.82;101552.81;5073356;28;45520;-77
2023/05/27 07:07:08;;;;;;;;;8.00;5.00;;;;;15.78;47.62;101559.53;5073056;27;46266;-78
2023/05/27 07:09:33;;;;;;;;;8.50;5.25;;;;;15.80;47.84;101542.63;5073585;27;45596;-76
2023/05/27 07:12:00;;;;;;;;;6.50;6.00;;;;;15.84;47.93;101548.50;5074010;27;45675;-80
2023/05/27 07:14:26;;;;;;;;;8.25;8.00;;;;;15.86;47.85;101549.22;5073242;28;46960;-79
2023/05/27 07:20:13;;;;;;;;;11.75;7.00;;;;;15.91;47.93;101544.41;5065597;28;45795;-78
2023/05/27 07:22:38;;;;;;;;;5.75;5.00;;;;;15.95;47.92;101544.06;5073424;28;45739;-78
2023/05/27 07:25:04;;;;;;;;;7.50;7.00;;;;;15.96;48.05;101529.03;5073239;27;46315;-80
2023/05/27 07:27:30;;;;;;;;;8.00;7.00;;;;;15.97;48.01;101528.09;5072996;27;46647;-79
2023/05/27 07:29:55;;;;;;;;;7.75;6.50;;;;;16.04;48.07;101536.34;5073103;27;45883;-81
2023/05/27 07:32:22;;;;;;;;;7.00;6.25;;;;;16.05;48.09;101527.47;5073331;28;45872;-80
2023/05/27 07:34:47;;;;;;;;;8.00;6.00;;;;;16.08;48.07;101522.78;5072949;27;46367;-81
2023/05/27 07:37:12;;;;;;;;;7.00;6.50;;;;;16.11;48.14;101525.16;5072315;28;46186;-79
2023/05/27 07:39:38;;;;;;;;;7.25;6.25;;;;;16.12;47.83;101528.66;5075565;27;45498;-82
2023/05/27 07:42:05;;;;;;;;;7.50;6.25;;;;;16.15;48.19;101516.03;5076693;28;45568;-80
2023/05/27 07:44:30;;;;;;;;;11.75;7.50;;;;;16.21;47.93;101523.47;5074752;28;47543;-78
2023/05/27 07:50:18;;;;;;;;;10.25;6.75;;;;;16.30;47.92;101521.91;5076802;28;45573;-79
2023/05/27 07:52:43;;;;;;;;;7.50;6.00;;;;;16.38;47.88;101522.13;5084095;28;45558;-80
2023/05/27 07:55:09;;;;;;;;;9.25;7.00;;;;;16.42;47.75;101520.06;5085013;28;45547;-80
2023/05/27 07:57:34;;;;;;;;;8.00;6.50;;;;;16.47;47.83;101520.53;5083162;28;45583;-78
2023/05/27 08:00:00;;;;;;;;;8.00;6.25;;;;;16.52;47.82;101513.88;5080755;27;45541;-82
2023/05/27 08:05:47;;;;;;;;;8.50;7.00;;;;;16.64;47.69;101517.38;5076135;28;45568;-82
2023/05/27 08:08:13;;;;;;;;;7.25;7.25;;;;;16.67;47.58;101515.34;5076662;27;45755;-76
2023/05/27 08:10:39;;;;;;;;;5.75;5.75;;;;;16.72;47.83;101518.44;5076870;27;45542;-82
2023/05/27 08:13:04;;;;;;;;;7.00;7.00;;;;;16.74;47.83;101503.25;5077083;27;45920;-80
2023/05/27 08:15:30;;;;;;;;;7.75;7.25;;;;;16.80;47.42;101509.84;5077221;27;45790;-78
2023/05/27 08:17:56;;;;;;;;;11.00;9.00;;;;;16.82;47.78;101505.28;5078239;27;45644;-79
2023/05/27 08:20:21;;;;;;;;;7.25;6.00;;;;;16.86;47.55;101500.56;5077473;27;45709;-78
2023/05/27 08:22:47;;;;;;;;;9.00;8.00;;;;;16.90;47.23;101504.63;5077403;28;45627;-80
2023/05/27 08:25:12;;;;;;;;;10.50;6.00;;;;;16.94;47.40;101495.50;5076101;27;45687;-80
2023/05/27 08:27:46;;;;;;;;;7.00;5.75;;;;;17.00;47.21;101495.81;5075628;28;45598;-79
2023/05/27 08:30:13;;;;;;;;;8.00;6.25;;;;;17.04;47.36;101489.28;5075976;28;45784;-81
2023/05/27 08:36:00;;;;;;;;;8.00;5.75;;;;;17.18;46.91;101494.25;5074675;28;45837;-80
2023/05/27 08:38:25;;;;;;;;;9.50;7.75;;;;;17.23;46.91;101480.63;5076009;27;46082;-77
2023/05/27 08:40:52;;;;;;;;;9.75;6.00;;;;;17.29;46.96;101481.91;5076030;28;45660;-78
2023/05/27 08:43:18;;;;;;;;;8.75;7.25;;;;;17.34;47.10;101491.13;5076138;27;45676;-80
2023/05/27 08:45:44;;;;;;;;;7.00;6.25;;;;;17.39;47.08;101473.03;5075564;28;45741;-81
2023/05/27 08:48:10;;;;;;;;;10.25;7.25;;;;;17.43;47.16;101473.63;5076962;27;45709;-83
2023/05/27 08:50:36;;;;;;;;;9.75;8.00;;;;;17.52;46.84;101472.84;5074994;27;45576;-77
2023/05/27 08:53:02;;;;;;;;;8.00;8.00;;;;;17.55;47.19;101473.41;5075734;28;45902;-79
2023/05/27 08:55:30;;;;;;;;;10.50;8.50;;;;;17.65;47.04;101467.34;5075016;27;46373;-77
2023/05/27 08:57:57;;;;;;;;;9.50;7.50;;;;;17.70;46.31;101476.59;5075466;27;46082;-77
2023/05/27 09:00:24;;;;;;;;;8.00;7.00;;;;;17.74;46.35;101469.19;5075751;27;45786;-81
2023/05/27 09:06:11;;;;;;;;;9.75;8.00;;;;;17.86;46.55;101462.81;5074970;28;45491;-78
2023/05/27 09:08:37;;;;;;;;;7.75;6.75;;;;;17.92;46.81;101464.94;5075829;27;45920;-78
2023/05/27 09:11:02;;;;;;;;;9.00;7.25;;;;;17.98;46.85;101461.72;5075605;27;45921;-76
2023/05/27 09:13:31;;;;;;;;;9.50;7.00;;;;;18.04;46.71;101453.22;5075515;27;45711;-82
2023/05/27 09:16:05;;;;;;;;;8.00;6.50;;;;;18.09;46.18;101458.09;5074834;28;45815;-78
2023/05/27 09:18:33;;;;;;;;;8.75;8.00;;;;;18.15;46.26;101458.41;5075873;27;45991;-77
2023/05/27 09:20:58;;;;;;;;;9.75;8.75;;;;;18.20;46.02;101445.56;5075259;27;45631;-78
2023/05/27 09:23:25;;;;;;;;;8.50;8.50;;;;;18.23;46.13;101441.81;5075691;27;45572;-77
2023/05/27 09:25:50;;;;;;;;;8.00;7.00;;;;;18.30;45.90;101440.31;5074427;27;46632;-77
2023/05/27 09:28:26;;;;;;;;;8.25;7.75;;;;;18.35;46.03;101446.84;5073633;28;47538;-80
2023/05/27 09:31:04;;;;;;;;;8.00;7.75;;;;;18.41;45.84;101435.66;5074772;27;45795;-78
2023/05/27 09:33:34;;;;;;;;;10.50;8.00;;;;;18.47;46.09;101436.94;5075079;27;45664;-78
2023/05/27 09:36:01;;;;;;;;;8.50;6.75;;;;;18.49;45.93;101419.06;5074438;28;45622;-78
2023/05/27 09:38:30;;;;;;;;;10.00;8.75;;;;;18.58;46.03;101434.16;5078335;27;45553;-78
2023/05/27 09:40:59;;;;;;;;;7.00;6.00;;;;;18.61;45.71;101422.44;5081933;27;45742;-81
2023/05/27 09:43:26;;;;;;;;;9.00;8.00;;;;;18.65;45.43;101414.06;5082806;27;45781;-79
2023/05/27 09:52:41;;;;;;;;;8.75;7.75;;;;;18.79;45.66;101403.00;5011632;28;45752;-80
2023/05/27 09:55:08;;;;;;;;;12.00;8.00;;;;;18.84;45.37;101403.41;5011956;28;45656;-80
2023/05/27 09:57:35;;;;;;;;;9.00;8.75;;;;;18.88;45.37;101401.31;5011279;28;45717;-79
2023/05/27 10:00:14;;;;;;;;;10.25;8.75;;;;;18.96;45.17;101406.72;5011574;28;46212;-78
2023/05/27 10:02:42;;;;;;;;;11.25;9.00;;;;;19.02;45.74;101403.50;5010824;28;45854;-78
2023/05/27 10:05:09;;;;;;;;;8.25;7.75;;;;;19.09;45.50;101401.94;5011480;28;45985;-79
2023/05/27 10:07:38;;;;;;;;;9.00;8.50;;;;;19.13;45.36;101391.88;5011377;28;45689;-78
2023/05/27 10:10:09;;;;;;;;;9.50;8.25;;;;;19.20;45.21;101391.16;4994868;28;46439;-76
2023/05/27 10:12:40;;;;;;;;;14.50;9.75;;;;;19.28;45.22;101385.94;5011699;28;45738;-77
2023/05/27 10:15:06;;;;;;;;;12.00;8.75;;;;;19.36;44.76;101393.19;4994346;28;45894;-79
2023/05/27 10:17:42;;;;;;;;;9.75;8.25;;;;;19.44;45.13;101384.47;5010654;28;46300;-79
2023/05/27 10:20:09;;;;;;;;;8.00;8.00;;;;;19.47;44.72;101390.38;4994424;28;47112;-82
2023/05/27 10:22:47;;;;;;;;;10.00;9.00;;;;;19.55;44.96;101392.28;5011379;28;45754;-79
2023/05/27 10:25:13;;;;;;;;;9.50;7.75;;;;;19.61;44.61;101381.06;5028427;28;45980;-77
2023/05/27 10:27:43;;;;;;;;;7.00;6.00;;;;;19.67;44.32;101380.47;5075027;27;47754;-80
2023/05/27 10:30:09;;;;;;;;;10.50;8.00;;;;;19.69;44.43;101379.34;5074659;27;45575;-76
2023/05/27 10:32:43;;;;;;;;;9.50;9.00;;;;;19.78;44.22;101376.75;5074896;28;45645;-79
2023/05/27 10:35:08;;;;;;;;;8.25;7.75;;;;;19.77;43.84;101365.28;5073444;27;45631;-78
2023/05/27 10:37:34;;;;;;;;;9.00;8.25;;;;;19.84;43.98;101381.47;5073535;28;45600;-78
2023/05/27 10:40:00;;;;;;;;;15.50;8.00;;;;;19.88;44.37;101377.53;5073514;28;45716;-80
2023/05/27 10:42:27;;;;;;;;;9.25;7.75;;;;;19.94;44.28;101372.44;5073456;27;45708;-79
2023/05/27 10:45:05;;;;;;;;;7.50;7.00;;;;;19.97;44.26;101361.50;5073679;27;45783;-78
2023/05/27 10:47:30;;;;;;;;;10.50;8.75;;;;;20.07;44.22;101364.94;5073099;27;45696;-79
2023/05/27 10:49:57;;;;;;;;;8.00;8.00;;;;;20.15;44.10;101366.81;5077275;27;46127;-79
2023/05/27 10:52:33;;;;;;;;;9.50;8.25;;;;;20.23;44.27;101355.44;5081290;27;45591;-83
2023/05/27 10:54:59;;;;;;;;;10.75;10.00;;;;;20.28;43.94;101343.34;5075408;27;45793;-78
2023/05/27 10:57:24;;;;;;;;;9.25;8.00;;;;;20.34;43.70;101344.56;5074488;28;46391;-83
2023/05/27 10:59:57;;;;;;;;;8.00;7.00;;;;;20.42;43.36;101345.47;5074057;28;46106;-81
2023/05/27 11:02:24;;;;;;;;;13.00;9.75;;;;;20.47;42.76;101345.84;5073229;27;45771;-81
2023/05/27 11:04:50;;;;;;;;;10.00;8.00;;;;;20.53;42.92;101342.56;5073681;27;45711;-82
2023/05/27 11:07:20;;;;;;;;;8.00;7.00;;;;;20.59;42.44;101354.41;5073105;28;46577;-80
2023/05/27 11:09:50;;;;;;;;;10.75;9.00;;;;;20.62;42.69;101327.47;5073419;27;45950;-82
2023/05/27 11:12:17;;;;;;;;;10.50;7.50;;;;;20.69;43.07;101333.00;5073262;28;45701;-80
2023/05/27 11:14:50;;;;;;;;;10.00;9.00;;;;;20.75;42.51;101337.72;5074276;28;45701;-80
2023/05/27 11:17:17;;;;;;;;;12.00;8.25;;;;;20.79;42.36;101321.25;5074785;27;45598;-80
2023/05/27 11:19:45;;;;;;;;;10.00;9.50;;;;;20.85;42.39;101320.63;5076353;27;45890;-77
2023/05/27 11:22:11;;;;;;;;;11.75;10.25;;;;;20.92;42.71;101315.50;5079300;27;45734;-80
2023/05/27 11:24:37;;;;;;;;;9.75;8.75;;;;;20.98;42.99;101322.03;5082318;27;45721;-80
2023/05/27 11:27:10;;;;;;;;;6.50;5.00;;;;;21.04;42.55;101329.38;5080714;27;46401;-81
2023/05/27 11:29:36;;;;;;;;;9.75;9.50;;;;;21.07;41.72;101321.91;5076266;27;45640;-81
2023/05/27 11:32:03;;;;;;;;;8.00;7.50;;;;;21.13;42.23;101318.59;5075688;27;45591;-82
2023/05/27 11:34:28;;;;;;;;;12.25;9.75;;;;;21.16;41.99;101307.63;5074006;28;45591;-81
2023/05/27 11:36:55;;;;;;;;;8.50;8.50;;;;;21.21;41.87;101307.19;5073315;28;45749;-80
2023/05/27 11:39:21;;;;;;;;;11.00;10.25;;;;;21.30;42.03;101311.53;5073639;27;46077;-79
2023/05/27 11:41:51;;;;;;;;;8.75;8.00;;;;;21.34;41.73;101291.56;5073403;28;45737;-80
2023/05/27 11:44:18;;;;;;;;;8.75;8.00;;;;;21.41;41.47;101287.25;5073608;27;45527;-80
2023/05/27 11:46:45;;;;;;;;;8.75;7.25;;;;;21.47;41.36;101293.75;5073816;27;45583;-82
2023/05/27 11:52:33;;;;;;;;;9.00;8.75;;;;;21.57;41.24;101279.28;5073300;28;45682;-82
2023/05/27 11:54:58;;;;;;;;;10.50;8.75;;;;;21.64;41.55;101276.81;5071716;28;45628;-80
2023/05/27 11:57:24;;;;;;;;;10.00;8.00;;;;;21.70;41.08;101279.63;5073577;27;46347;-81
2023/05/27 11:59:49;;;;;;;;;10.00;8.00;;;;;21.76;40.88;101267.47;5073304;27;46085;-82
2023/05/27 12:02:14;;;;;;;;;10.75;10.75;;;;;21.82;41.23;101276.63;5073261;28;45583;-78
2023/05/27 12:04:41;;;;;;;;;9.75;9.00;;;;;21.87;40.79;101272.47;5071852;28;45579;-80
2023/05/27 12:07:06;;;;;;;;;6.25;6.00;;;;;21.93;40.88;101263.81;5073180;27;45940;-79
2023/05/27 12:09:32;;;;;;;;;10.50;9.00;;;;;21.99;40.97;101265.00;5073326;27;45699;-81
2023/05/27 12:11:57;;;;;;;;;12.25;9.00;;;;;22.06;41.08;101274.88;5073632;27;45499;-80
2023/05/27 12:14:22;;;;;;;;;5.25;5.25;;;;;22.12;40.21;101268.03;5073657;27;45519;-78
2023/05/27 12:16:48;;;;;;;;;11.00;8.50;;;;;22.17;40.46;101273.69;5073265;28;45602;-80
2023/05/27 12:23:16;;;;;;;;;8.75;7.75;;;;;22.28;41.30;101268.00;5068720;28;45880;-79
2023/05/27 12:25:41;;;;;;;;;11.50;9.25;;;;;22.32;41.16;101255.13;5076359;28;45646;-78
2023/05/27 12:28:09;;;;;;;;;8.00;7.50;;;;;22.37;41.00;101253.63;5092740;27;46788;-78
2023/05/27 12:30:36;;;;;;;;;9.75;8.75;;;;;22.41;40.40;101254.13;5076625;28;45969;-79
2023/05/27 12:33:05;;;;;;;;;9.00;8.00;;;;;22.47;40.60;101254.28;5076368;27;45711;-80
2023/05/27 12:35:31;;;;;;;;;9.00;8.25;;;;;22.54;40.43;101252.59;5075031;28;45667;-80
2023/05/27 12:37:57;;;;;;;;;9.50;8.75;;;;;22.58;40.71;101256.59;5076179;28;45737;-82
2023/05/27 12:40:23;;;;;;;;;9.50;9.00;;;;;22.64;40.41;101248.88;5076163;27;45812;-77